sensor_id;sensor_type;location;lat;lon;timestamp;pressure;altitude;pressure_sealevel;temperature
37536;BMP180;23379;51.554;6.736;2023-03-13T00:01:49;99879.00;;;10.60
37536;BMP180;23379;51.554;6.736;2023-03-13T00:04:14;99892.00;;;10.50
37536;BMP180;23379;51.554;6.736;2023-03-13T00:06:40;99868.00;;;10.50
37536;BMP180;23379;51.554;6.736;2023-03-13T00:09:08;99879.00;;;10.30
37536;BMP180;23379;51.554;6.736;2023-03-13T00:11:35;99877.00;;;10.30
37536;BMP180;23379;51.554;6.736;2023-03-13T00:14:02;99875.00;;;10.20
37536;BMP180;23379;51.554;6.736;2023-03-13T00:16:28;99857.00;;;10.30
37536;BMP180;23379;51.554;6.736;2023-03-13T00:18:55;99862.00;;;10.30
37536;BMP180;23379;51.554;6.736;2023-03-13T00:21:23;99848.00;;;10.20
37536;BMP180;23379;51.554;6.736;2023-03-13T00:23:50;99826.00;;;10.10
37536;BMP180;23379;51.554;6.736;2023-03-13T00:26:18;99842.00;;;10.10
37536;BMP180;23379;51.554;6.736;2023-03-13T00:28:44;99812.00;;;10.20
37536;BMP180;23379;51.554;6.736;2023-03-13T00:31:12;99828.00;;;10.10
37536;BMP180;23379;51.554;6.736;2023-03-13T00:33:41;99796.00;;;10.10
37536;BMP180;23379;51.554;6.736;2023-03-13T00:36:09;99807.00;;;10.10
37536;BMP180;23379;51.554;6.736;2023-03-13T00:38:35;99811.00;;;10.10
37536;BMP180;23379;51.554;6.736;2023-03-13T00:41:04;99811.00;;;10.20
37536;BMP180;23379;51.554;6.736;2023-03-13T00:43:30;99812.00;;;10.30
37536;BMP180;23379;51.554;6.736;2023-03-13T00:45:55;99804.00;;;10.30
37536;BMP180;23379;51.554;6.736;2023-03-13T00:48:21;99794.00;;;10.20
37536;BMP180;23379;51.554;6.736;2023-03-13T00:50:47;99789.00;;;10.00
37536;BMP180;23379;51.554;6.736;2023-03-13T00:53:12;99777.00;;;10.00
37536;BMP180;23379;51.554;6.736;2023-03-13T00:55:37;99758.00;;;10.00
37536;BMP180;23379;51.554;6.736;2023-03-13T00:58:03;99757.00;;;10.00
37536;BMP180;23379;51.554;6.736;2023-03-13T01:00:28;99759.00;;;10.00
37536;BMP180;23379;51.554;6.736;2023-03-13T01:02:53;99758.00;;;10.00
37536;BMP180;23379;51.554;6.736;2023-03-13T01:05:19;99741.00;;;9.90
37536;BMP180;23379;51.554;6.736;2023-03-13T01:07:44;99739.00;;;10.00
37536;BMP180;23379;51.554;6.736;2023-03-13T01:10:09;99763.00;;;10.00
37536;BMP180;23379;51.554;6.736;2023-03-13T01:12:35;99745.00;;;10.10
37536;BMP180;23379;51.554;6.736;2023-03-13T01:15:01;99743.00;;;9.90
37536;BMP180;23379;51.554;6.736;2023-03-13T01:17:26;99730.00;;;10.00
37536;BMP180;23379;51.554;6.736;2023-03-13T01:19:54;99730.00;;;9.80
37536;BMP180;23379;51.554;6.736;2023-03-13T01:22:20;99741.00;;;9.70
37536;BMP180;23379;51.554;6.736;2023-03-13T01:24:45;99728.00;;;9.60
37536;BMP180;23379;51.554;6.736;2023-03-13T01:27:14;99723.00;;;9.60
37536;BMP180;23379;51.554;6.736;2023-03-13T01:29:39;99706.00;;;9.60
37536;BMP180;23379;51.554;6.736;2023-03-13T01:32:05;99686.00;;;9.60
37536;BMP180;23379;51.554;6.736;2023-03-13T01:34:30;99687.00;;;9.60
37536;BMP180;23379;51.554;6.736;2023-03-13T01:36:56;99697.00;;;9.40
37536;BMP180;23379;51.554;6.736;2023-03-13T01:39:21;99682.00;;;9.50
37536;BMP180;23379;51.554;6.736;2023-03-13T01:41:46;99647.00;;;9.50
37536;BMP180;23379;51.554;6.736;2023-03-13T01:44:21;99670.00;;;9.50
37536;BMP180;23379;51.554;6.736;2023-03-13T01:46:47;99680.00;;;9.50
37536;BMP180;23379;51.554;6.736;2023-03-13T01:51:49;99668.00;;;9.50
37536;BMP180;23379;51.554;6.736;2023-03-13T01:54:27;99646.00;;;9.60
37536;BMP180;23379;51.554;6.736;2023-03-13T01:57:06;99649.00;;;9.60
37536;BMP180;23379;51.554;6.736;2023-03-13T02:02:11;99606.00;;;9.60
37536;BMP180;23379;51.554;6.736;2023-03-13T02:04:38;99606.00;;;9.60
37536;BMP180;23379;51.554;6.736;2023-03-13T02:07:09;99610.00;;;9.60
37536;BMP180;23379;51.554;6.736;2023-03-13T02:09:39;99601.00;;;9.60
37536;BMP180;23379;51.554;6.736;2023-03-13T02:12:07;99595.00;;;9.60
37536;BMP180;23379;51.554;6.736;2023-03-13T02:14:36;99585.00;;;9.70
37536;BMP180;23379;51.554;6.736;2023-03-13T02:17:03;99587.00;;;9.60
37536;BMP180;23379;51.554;6.736;2023-03-13T02:19:32;99580.00;;;9.70
37536;BMP180;23379;51.554;6.736;2023-03-13T02:22:15;99576.00;;;9.70
37536;BMP180;23379;51.554;6.736;2023-03-13T02:27:17;99541.00;;;9.80
37536;BMP180;23379;51.554;6.736;2023-03-13T02:29:43;99545.00;;;9.80
37536;BMP180;23379;51.554;6.736;2023-03-13T02:32:08;99531.00;;;9.80
37536;BMP180;23379;51.554;6.736;2023-03-13T02:34:37;99545.00;;;9.80
37536;BMP180;23379;51.554;6.736;2023-03-13T02:37:05;99511.00;;;9.90
37536;BMP180;23379;51.554;6.736;2023-03-13T02:39:32;99532.00;;;9.90
37536;BMP180;23379;51.554;6.736;2023-03-13T02:41:58;99514.00;;;10.00
37536;BMP180;23379;51.554;6.736;2023-03-13T02:44:26;99524.00;;;10.00
37536;BMP180;23379;51.554;6.736;2023-03-13T02:46:51;99516.00;;;10.00
37536;BMP180;23379;51.554;6.736;2023-03-13T02:49:28;99520.00;;;10.00
37536;BMP180;23379;51.554;6.736;2023-03-13T02:51:56;99505.00;;;10.00
37536;BMP180;23379;51.554;6.736;2023-03-13T02:54:29;99496.00;;;10.00
37536;BMP180;23379;51.554;6.736;2023-03-13T02:56:59;99500.00;;;10.00
37536;BMP180;23379;51.554;6.736;2023-03-13T02:59:26;99500.00;;;10.00
37536;BMP180;23379;51.554;6.736;2023-03-13T03:01:51;99494.00;;;10.10
37536;BMP180;23379;51.554;6.736;2023-03-13T03:04:21;99487.00;;;10.10
37536;BMP180;23379;51.554;6.736;2023-03-13T03:06:48;99475.00;;;10.20
37536;BMP180;23379;51.554;6.736;2023-03-13T03:09:13;99459.00;;;10.20
37536;BMP180;23379;51.554;6.736;2023-03-13T03:11:39;99453.00;;;10.20
37536;BMP180;23379;51.554;6.736;2023-03-13T03:14:04;99460.00;;;10.30
37536;BMP180;23379;51.554;6.736;2023-03-13T03:16:30;99468.00;;;10.20
37536;BMP180;23379;51.554;6.736;2023-03-13T03:18:55;99459.00;;;10.30
37536;BMP180;23379;51.554;6.736;2023-03-13T03:21:21;99432.00;;;10.40
37536;BMP180;23379;51.554;6.736;2023-03-13T03:23:48;99466.00;;;10.50
37536;BMP180;23379;51.554;6.736;2023-03-13T03:26:14;99458.00;;;10.50
37536;BMP180;23379;51.554;6.736;2023-03-13T03:28:40;99453.00;;;10.50
37536;BMP180;23379;51.554;6.736;2023-03-13T03:31:07;99457.00;;;10.40
37536;BMP180;23379;51.554;6.736;2023-03-13T03:33:32;99455.00;;;10.50
37536;BMP180;23379;51.554;6.736;2023-03-13T03:35:59;99462.00;;;10.50
37536;BMP180;23379;51.554;6.736;2023-03-13T03:38:25;99468.00;;;10.50
37536;BMP180;23379;51.554;6.736;2023-03-13T03:40:50;99468.00;;;10.60
37536;BMP180;23379;51.554;6.736;2023-03-13T03:43:16;99477.00;;;10.60
37536;BMP180;23379;51.554;6.736;2023-03-13T03:45:41;99471.00;;;10.70
37536;BMP180;23379;51.554;6.736;2023-03-13T03:48:06;99473.00;;;10.80
37536;BMP180;23379;51.554;6.736;2023-03-13T03:50:31;99462.00;;;10.90
37536;BMP180;23379;51.554;6.736;2023-03-13T03:52:57;99469.00;;;10.70
37536;BMP180;23379;51.554;6.736;2023-03-13T03:55:22;99481.00;;;10.80
37536;BMP180;23379;51.554;6.736;2023-03-13T03:57:47;99467.00;;;10.80
37536;BMP180;23379;51.554;6.736;2023-03-13T04:00:13;99456.00;;;10.80
37536;BMP180;23379;51.554;6.736;2023-03-13T04:02:40;99455.00;;;10.80
37536;BMP180;23379;51.554;6.736;2023-03-13T04:05:05;99447.00;;;10.90
37536;BMP180;23379;51.554;6.736;2023-03-13T04:07:31;99452.00;;;10.90
37536;BMP180;23379;51.554;6.736;2023-03-13T04:09:56;99444.00;;;11.00
37536;BMP180;23379;51.554;6.736;2023-03-13T04:12:21;99449.00;;;11.00
37536;BMP180;23379;51.554;6.736;2023-03-13T04:14:47;99456.00;;;11.00
37536;BMP180;23379;51.554;6.736;2023-03-13T04:17:13;99455.00;;;11.00
37536;BMP180;23379;51.554;6.736;2023-03-13T04:19:39;99432.00;;;11.00
37536;BMP180;23379;51.554;6.736;2023-03-13T04:22:04;99411.00;;;11.10
37536;BMP180;23379;51.554;6.736;2023-03-13T04:24:30;99432.00;;;11.10
37536;BMP180;23379;51.554;6.736;2023-03-13T04:26:55;99420.00;;;11.10
37536;BMP180;23379;51.554;6.736;2023-03-13T04:29:20;99415.00;;;11.20
37536;BMP180;23379;51.554;6.736;2023-03-13T04:31:46;99418.00;;;11.20
37536;BMP180;23379;51.554;6.736;2023-03-13T04:34:11;99408.00;;;11.30
37536;BMP180;23379;51.554;6.736;2023-03-13T04:36:37;99436.00;;;11.40
37536;BMP180;23379;51.554;6.736;2023-03-13T04:39:02;99422.00;;;11.30
37536;BMP180;23379;51.554;6.736;2023-03-13T04:41:29;99415.00;;;11.30
37536;BMP180;23379;51.554;6.736;2023-03-13T04:43:54;99416.00;;;11.30
37536;BMP180;23379;51.554;6.736;2023-03-13T04:46:19;99420.00;;;11.30
37536;BMP180;23379;51.554;6.736;2023-03-13T04:48:45;99423.00;;;11.30
37536;BMP180;23379;51.554;6.736;2023-03-13T04:51:11;99417.00;;;11.40
37536;BMP180;23379;51.554;6.736;2023-03-13T04:53:36;99398.00;;;11.40
37536;BMP180;23379;51.554;6.736;2023-03-13T04:56:02;99410.00;;;11.40
37536;BMP180;23379;51.554;6.736;2023-03-13T04:58:27;99395.00;;;11.40
37536;BMP180;23379;51.554;6.736;2023-03-13T05:00:53;99402.00;;;11.50
37536;BMP180;23379;51.554;6.736;2023-03-13T05:03:19;99388.00;;;11.50
37536;BMP180;23379;51.554;6.736;2023-03-13T05:05:44;99394.00;;;11.50
37536;BMP180;23379;51.554;6.736;2023-03-13T05:08:09;99383.00;;;11.60
37536;BMP180;23379;51.554;6.736;2023-03-13T05:10:35;99396.00;;;11.70
37536;BMP180;23379;51.554;6.736;2023-03-13T05:13:01;99394.00;;;11.60
37536;BMP180;23379;51.554;6.736;2023-03-13T05:15:26;99382.00;;;11.50
37536;BMP180;23379;51.554;6.736;2023-03-13T05:17:51;99382.00;;;11.60
37536;BMP180;23379;51.554;6.736;2023-03-13T05:20:17;99378.00;;;11.70
37536;BMP180;23379;51.554;6.736;2023-03-13T05:22:42;99354.00;;;11.70
37536;BMP180;23379;51.554;6.736;2023-03-13T05:25:08;99373.00;;;11.70
37536;BMP180;23379;51.554;6.736;2023-03-13T05:27:33;99371.00;;;11.80
37536;BMP180;23379;51.554;6.736;2023-03-13T05:29:59;99383.00;;;11.80
37536;BMP180;23379;51.554;6.736;2023-03-13T05:32:24;99368.00;;;11.80
37536;BMP180;23379;51.554;6.736;2023-03-13T05:34:49;99363.00;;;11.90
37536;BMP180;23379;51.554;6.736;2023-03-13T05:37:15;99375.00;;;11.90
37536;BMP180;23379;51.554;6.736;2023-03-13T05:39:40;99370.00;;;11.80
37536;BMP180;23379;51.554;6.736;2023-03-13T05:42:05;99378.00;;;11.90
37536;BMP180;23379;51.554;6.736;2023-03-13T05:44:31;99382.00;;;12.00
37536;BMP180;23379;51.554;6.736;2023-03-13T05:46:56;99351.00;;;12.00
37536;BMP180;23379;51.554;6.736;2023-03-13T05:49:21;99360.00;;;11.90
37536;BMP180;23379;51.554;6.736;2023-03-13T05:51:47;99366.00;;;12.00
37536;BMP180;23379;51.554;6.736;2023-03-13T05:54:12;99364.00;;;12.10
37536;BMP180;23379;51.554;6.736;2023-03-13T05:56:38;99372.00;;;12.20
37536;BMP180;23379;51.554;6.736;2023-03-13T05:59:03;99350.00;;;12.20
37536;BMP180;23379;51.554;6.736;2023-03-13T06:01:28;99358.00;;;12.20
37536;BMP180;23379;51.554;6.736;2023-03-13T06:03:54;99346.00;;;12.30
37536;BMP180;23379;51.554;6.736;2023-03-13T06:06:19;99322.00;;;12.30
37536;BMP180;23379;51.554;6.736;2023-03-13T06:08:45;99340.00;;;12.40
37536;BMP180;23379;51.554;6.736;2023-03-13T06:11:10;99354.00;;;12.40
37536;BMP180;23379;51.554;6.736;2023-03-13T06:13:36;99341.00;;;12.30
37536;BMP180;23379;51.554;6.736;2023-03-13T06:16:01;99357.00;;;12.50
37536;BMP180;23379;51.554;6.736;2023-03-13T06:18:26;99359.00;;;12.40
37536;BMP180;23379;51.554;6.736;2023-03-13T06:20:58;99373.00;;;12.50
37536;BMP180;23379;51.554;6.736;2023-03-13T06:23:23;99372.00;;;12.50
37536;BMP180;23379;51.554;6.736;2023-03-13T06:25:49;99326.00;;;12.60
37536;BMP180;23379;51.554;6.736;2023-03-13T06:28:15;99348.00;;;12.50
37536;BMP180;23379;51.554;6.736;2023-03-13T06:30:40;99343.00;;;12.50
37536;BMP180;23379;51.554;6.736;2023-03-13T06:33:06;99335.00;;;12.60
37536;BMP180;23379;51.554;6.736;2023-03-13T06:35:31;99344.00;;;12.70
37536;BMP180;23379;51.554;6.736;2023-03-13T06:37:56;99355.00;;;12.70
37536;BMP180;23379;51.554;6.736;2023-03-13T06:40:22;99365.00;;;12.70
37536;BMP180;23379;51.554;6.736;2023-03-13T06:42:47;99384.00;;;12.70
37536;BMP180;23379;51.554;6.736;2023-03-13T06:45:13;99364.00;;;12.80
37536;BMP180;23379;51.554;6.736;2023-03-13T06:47:38;99365.00;;;12.70
37536;BMP180;23379;51.554;6.736;2023-03-13T06:50:04;99359.00;;;12.80
37536;BMP180;23379;51.554;6.736;2023-03-13T06:52:29;99370.00;;;12.80
37536;BMP180;23379;51.554;6.736;2023-03-13T06:54:54;99355.00;;;12.80
37536;BMP180;23379;51.554;6.736;2023-03-13T06:57:20;99357.00;;;12.80
37536;BMP180;23379;51.554;6.736;2023-03-13T06:59:45;99358.00;;;12.90
37536;BMP180;23379;51.554;6.736;2023-03-13T07:02:11;99357.00;;;12.90
37536;BMP180;23379;51.554;6.736;2023-03-13T07:04:36;99370.00;;;12.90
37536;BMP180;23379;51.554;6.736;2023-03-13T07:07:02;99357.00;;;13.00
37536;BMP180;23379;51.554;6.736;2023-03-13T07:09:28;99351.00;;;12.90
37536;BMP180;23379;51.554;6.736;2023-03-13T07:11:53;99356.00;;;13.00
37536;BMP180;23379;51.554;6.736;2023-03-13T07:14:19;99328.00;;;13.10
37536;BMP180;23379;51.554;6.736;2023-03-13T07:16:44;99344.00;;;13.20
37536;BMP180;23379;51.554;6.736;2023-03-13T07:19:10;99325.00;;;13.20
37536;BMP180;23379;51.554;6.736;2023-03-13T07:21:35;99332.00;;;13.10
37536;BMP180;23379;51.554;6.736;2023-03-13T07:24:01;99320.00;;;13.20
37536;BMP180;23379;51.554;6.736;2023-03-13T07:26:26;99324.00;;;13.20
37536;BMP180;23379;51.554;6.736;2023-03-13T07:28:52;99321.00;;;13.30
37536;BMP180;23379;51.554;6.736;2023-03-13T07:31:19;99321.00;;;13.30
37536;BMP180;23379;51.554;6.736;2023-03-13T07:33:45;99324.00;;;13.40
37536;BMP180;23379;51.554;6.736;2023-03-13T07:36:12;99319.00;;;13.30
37536;BMP180;23379;51.554;6.736;2023-03-13T07:38:38;99326.00;;;13.30
37536;BMP180;23379;51.554;6.736;2023-03-13T07:41:04;99292.00;;;13.30
37536;BMP180;23379;51.554;6.736;2023-03-13T07:43:30;99310.00;;;13.30
37536;BMP180;23379;51.554;6.736;2023-03-13T07:48:43;99329.00;;;13.40
37536;BMP180;23379;51.554;6.736;2023-03-13T07:51:17;99320.00;;;13.40
37536;BMP180;23379;51.554;6.736;2023-03-13T07:53:43;99324.00;;;13.50
37536;BMP180;23379;51.554;6.736;2023-03-13T07:56:14;99335.00;;;13.50
37536;BMP180;23379;51.554;6.736;2023-03-13T07:58:41;99326.00;;;13.50
37536;BMP180;23379;51.554;6.736;2023-03-13T08:01:11;99331.00;;;13.60
37536;BMP180;23379;51.554;6.736;2023-03-13T08:03:37;99322.00;;;13.50
37536;BMP180;23379;51.554;6.736;2023-03-13T08:06:08;99312.00;;;13.60
37536;BMP180;23379;51.554;6.736;2023-03-13T08:08:34;99306.00;;;13.60
37536;BMP180;23379;51.554;6.736;2023-03-13T08:11:09;99329.00;;;13.60
37536;BMP180;23379;51.554;6.736;2023-03-13T08:13:35;99314.00;;;13.80
37536;BMP180;23379;51.554;6.736;2023-03-13T08:16:11;99296.00;;;13.70
37536;BMP180;23379;51.554;6.736;2023-03-13T08:18:42;99327.00;;;13.70
37536;BMP180;23379;51.554;6.736;2023-03-13T08:21:16;99337.00;;;13.60
37536;BMP180;23379;51.554;6.736;2023-03-13T08:23:42;99320.00;;;13.70
37536;BMP180;23379;51.554;6.736;2023-03-13T08:28:37;99334.00;;;13.60
37536;BMP180;23379;51.554;6.736;2023-03-13T08:31:23;99326.00;;;13.80
37536;BMP180;23379;51.554;6.736;2023-03-13T08:33:49;99328.00;;;13.80
37536;BMP180;23379;51.554;6.736;2023-03-13T08:38:45;99322.00;;;13.90
37536;BMP180;23379;51.554;6.736;2023-03-13T08:41:12;99326.00;;;14.00
37536;BMP180;23379;51.554;6.736;2023-03-13T08:43:38;99326.00;;;13.90
37536;BMP180;23379;51.554;6.736;2023-03-13T08:46:03;99339.00;;;13.90
37536;BMP180;23379;51.554;6.736;2023-03-13T08:48:29;99325.00;;;13.80
37536;BMP180;23379;51.554;6.736;2023-03-13T08:51:13;99322.00;;;14.00
37536;BMP180;23379;51.554;6.736;2023-03-13T08:53:41;99322.00;;;14.30
37536;BMP180;23379;51.554;6.736;2023-03-13T08:56:08;99341.00;;;14.80
37536;BMP180;23379;51.554;6.736;2023-03-13T08:58:34;99313.00;;;14.80
37536;BMP180;23379;51.554;6.736;2023-03-13T09:01:04;99310.00;;;14.80
37536;BMP180;23379;51.554;6.736;2023-03-13T09:03:30;99309.00;;;14.80
37536;BMP180;23379;51.554;6.736;2023-03-13T09:05:56;99310.00;;;14.80
37536;BMP180;23379;51.554;6.736;2023-03-13T09:08:22;99299.00;;;14.90
37536;BMP180;23379;51.554;6.736;2023-03-13T09:10:56;99307.00;;;14.80
37536;BMP180;23379;51.554;6.736;2023-03-13T09:13:22;99307.00;;;14.80
37536;BMP180;23379;51.554;6.736;2023-03-13T09:15:55;99287.00;;;14.80
37536;BMP180;23379;51.554;6.736;2023-03-13T09:18:21;99289.00;;;14.70
37536;BMP180;23379;51.554;6.736;2023-03-13T09:20:47;99289.00;;;14.80
37536;BMP180;23379;51.554;6.736;2023-03-13T09:23:12;99306.00;;;14.90
37536;BMP180;23379;51.554;6.736;2023-03-13T09:25:37;99291.00;;;14.80
37536;BMP180;23379;51.554;6.736;2023-03-13T09:28:03;99272.00;;;15.10
37536;BMP180;23379;51.554;6.736;2023-03-13T09:30:28;99272.00;;;15.10
37536;BMP180;23379;51.554;6.736;2023-03-13T09:32:54;99289.00;;;15.20
37536;BMP180;23379;51.554;6.736;2023-03-13T09:35:19;99281.00;;;15.40
37536;BMP180;23379;51.554;6.736;2023-03-13T09:37:44;99268.00;;;15.60
37536;BMP180;23379;51.554;6.736;2023-03-13T09:40:14;99266.00;;;15.50
37536;BMP180;23379;51.554;6.736;2023-03-13T09:42:49;99279.00;;;15.40
37536;BMP180;23379;51.554;6.736;2023-03-13T09:45:20;99279.00;;;15.10
37536;BMP180;23379;51.554;6.736;2023-03-13T09:47:51;99273.00;;;15.00
37536;BMP180;23379;51.554;6.736;2023-03-13T09:50:24;99267.00;;;15.30
37536;BMP180;23379;51.554;6.736;2023-03-13T09:52:55;99255.00;;;15.20
37536;BMP180;23379;51.554;6.736;2023-03-13T09:55:30;99263.00;;;15.60
37536;BMP180;23379;51.554;6.736;2023-03-13T09:58:18;99244.00;;;15.60
37536;BMP180;23379;51.554;6.736;2023-03-13T10:00:57;99253.00;;;15.50
37536;BMP180;23379;51.554;6.736;2023-03-13T10:03:28;99260.00;;;15.60
37536;BMP180;23379;51.554;6.736;2023-03-13T10:06:00;99239.00;;;15.90
37536;BMP180;23379;51.554;6.736;2023-03-13T10:08:30;99257.00;;;15.90
37536;BMP180;23379;51.554;6.736;2023-03-13T10:11:28;99246.00;;;15.60
37536;BMP180;23379;51.554;6.736;2023-03-13T10:16:38;99238.00;;;15.50
37536;BMP180;23379;51.554;6.736;2023-03-13T10:19:17;99241.00;;;15.50
37536;BMP180;23379;51.554;6.736;2023-03-13T10:21:47;99235.00;;;16.00
37536;BMP180;23379;51.554;6.736;2023-03-13T10:26:55;99224.00;;;17.00
37536;BMP180;23379;51.554;6.736;2023-03-13T10:29:26;99222.00;;;17.00
37536;BMP180;23379;51.554;6.736;2023-03-13T10:31:57;99226.00;;;16.70
37536;BMP180;23379;51.554;6.736;2023-03-13T10:34:24;99196.00;;;17.10
37536;BMP180;23379;51.554;6.736;2023-03-13T10:36:56;99223.00;;;17.50
37536;BMP180;23379;51.554;6.736;2023-03-13T10:39:22;99223.00;;;17.90
37536;BMP180;23379;51.554;6.736;2023-03-13T10:41:49;99201.00;;;18.40
37536;BMP180;23379;51.554;6.736;2023-03-13T10:44:22;99204.00;;;19.30
37536;BMP180;23379;51.554;6.736;2023-03-13T10:46:49;99199.00;;;18.10
37536;BMP180;23379;51.554;6.736;2023-03-13T10:49:23;99201.00;;;17.40
37536;BMP180;23379;51.554;6.736;2023-03-13T10:51:53;99190.00;;;17.10
37536;BMP180;23379;51.554;6.736;2023-03-13T10:54:25;99195.00;;;17.00
37536;BMP180;23379;51.554;6.736;2023-03-13T10:56:53;99183.00;;;16.80
37536;BMP180;23379;51.554;6.736;2023-03-13T10:59:31;99168.00;;;16.90
37536;BMP180;23379;51.554;6.736;2023-03-13T11:01:59;99177.00;;;17.10
37536;BMP180;23379;51.554;6.736;2023-03-13T11:04:32;99161.00;;;16.60
37536;BMP180;23379;51.554;6.736;2023-03-13T11:07:28;99177.00;;;16.60
37536;BMP180;23379;51.554;6.736;2023-03-13T11:12:48;99163.00;;;16.90
37536;BMP180;23379;51.554;6.736;2023-03-13T11:15:17;99147.00;;;16.80
37536;BMP180;23379;51.554;6.736;2023-03-13T11:17:51;99179.00;;;16.80
37536;BMP180;23379;51.554;6.736;2023-03-13T11:20:21;99198.00;;;17.40
37536;BMP180;23379;51.554;6.736;2023-03-13T11:31:35;99147.00;;;16.90
37536;BMP180;23379;51.554;6.736;2023-03-13T11:34:36;99147.00;;;16.90
37536;BMP180;23379;51.554;6.736;2023-03-13T11:37:09;99156.00;;;17.10
37536;BMP180;23379;51.554;6.736;2023-03-13T11:56:20;99112.00;;;16.80
37536;BMP180;23379;51.554;6.736;2023-03-13T12:01:20;99122.00;;;16.80
37536;BMP180;23379;51.554;6.736;2023-03-13T12:04:18;99116.00;;;16.70
37536;BMP180;23379;51.554;6.736;2023-03-13T12:09:30;99103.00;;;16.90
37536;BMP180;23379;51.554;6.736;2023-03-13T12:12:14;99101.00;;;17.50
37536;BMP180;23379;51.554;6.736;2023-03-13T12:17:32;99087.00;;;16.80
37536;BMP180;23379;51.554;6.736;2023-03-13T12:20:17;99074.00;;;16.80
37536;BMP180;23379;51.554;6.736;2023-03-13T12:25:25;99067.00;;;17.10
37536;BMP180;23379;51.554;6.736;2023-03-13T12:28:13;99079.00;;;17.10
37536;BMP180;23379;51.554;6.736;2023-03-13T12:30:52;99044.00;;;17.00
37536;BMP180;23379;51.554;6.736;2023-03-13T12:39:17;99071.00;;;17.20
37536;BMP180;23379;51.554;6.736;2023-03-13T12:44:32;99030.00;;;16.70
37536;BMP180;23379;51.554;6.736;2023-03-13T12:47:20;99018.00;;;16.70
37536;BMP180;23379;51.554;6.736;2023-03-13T12:52:49;99023.00;;;16.70
37536;BMP180;23379;51.554;6.736;2023-03-13T12:55:29;99020.00;;;16.80
37536;BMP180;23379;51.554;6.736;2023-03-13T13:00:36;99001.00;;;17.10
37536;BMP180;23379;51.554;6.736;2023-03-13T13:05:35;99001.00;;;16.80
37536;BMP180;23379;51.554;6.736;2023-03-13T13:08:00;99013.00;;;17.70
37536;BMP180;23379;51.554;6.736;2023-03-13T13:10:27;99005.00;;;17.40
37536;BMP180;23379;51.554;6.736;2023-03-13T13:15:47;98990.00;;;17.10
37536;BMP180;23379;51.554;6.736;2023-03-13T13:18:25;99005.00;;;17.10
37536;BMP180;23379;51.554;6.736;2023-03-13T13:37:00;99000.00;;;17.00
37536;BMP180;23379;51.554;6.736;2023-03-13T13:39:51;98998.00;;;16.80
37536;BMP180;23379;51.554;6.736;2023-03-13T13:45:19;99008.00;;;16.80
37536;BMP180;23379;51.554;6.736;2023-03-13T13:47:47;98980.00;;;16.70
37536;BMP180;23379;51.554;6.736;2023-03-13T13:50:17;98981.00;;;16.70
37536;BMP180;23379;51.554;6.736;2023-03-13T13:52:43;98974.00;;;16.80
37536;BMP180;23379;51.554;6.736;2023-03-13T13:58:12;98975.00;;;16.50
37536;BMP180;23379;51.554;6.736;2023-03-13T14:00:54;98949.00;;;16.70
37536;BMP180;23379;51.554;6.736;2023-03-13T14:05:55;98963.00;;;16.70
37536;BMP180;23379;51.554;6.736;2023-03-13T14:08:28;98947.00;;;16.70
37536;BMP180;23379;51.554;6.736;2023-03-13T14:13:39;98968.00;;;16.70
37536;BMP180;23379;51.554;6.736;2023-03-13T14:16:25;98968.00;;;16.60
37536;BMP180;23379;51.554;6.736;2023-03-13T14:18:51;98962.00;;;16.60
37536;BMP180;23379;51.554;6.736;2023-03-13T14:21:22;98947.00;;;16.70
37536;BMP180;23379;51.554;6.736;2023-03-13T14:23:48;98939.00;;;16.70
37536;BMP180;23379;51.554;6.736;2023-03-13T14:26:22;98951.00;;;16.90
37536;BMP180;23379;51.554;6.736;2023-03-13T14:29:06;98941.00;;;16.70
37536;BMP180;23379;51.554;6.736;2023-03-13T14:31:33;98938.00;;;16.60
37536;BMP180;23379;51.554;6.736;2023-03-13T14:34:04;98938.00;;;16.80
37536;BMP180;23379;51.554;6.736;2023-03-13T14:36:44;98919.00;;;16.70
37536;BMP180;23379;51.554;6.736;2023-03-13T14:39:16;98915.00;;;16.70
37536;BMP180;23379;51.554;6.736;2023-03-13T14:41:45;98907.00;;;17.10
37536;BMP180;23379;51.554;6.736;2023-03-13T14:44:16;98901.00;;;17.70
37536;BMP180;23379;51.554;6.736;2023-03-13T14:46:44;98914.00;;;17.50
37536;BMP180;23379;51.554;6.736;2023-03-13T14:49:20;98923.00;;;17.20
37536;BMP180;23379;51.554;6.736;2023-03-13T14:52:01;98917.00;;;17.40
37536;BMP180;23379;51.554;6.736;2023-03-13T14:54:50;98913.00;;;18.00
37536;BMP180;23379;51.554;6.736;2023-03-13T14:57:17;98913.00;;;18.00
37536;BMP180;23379;51.554;6.736;2023-03-13T14:59:45;98898.00;;;17.30
37536;BMP180;23379;51.554;6.736;2023-03-13T15:02:26;98895.00;;;17.10
37536;BMP180;23379;51.554;6.736;2023-03-13T15:07:46;98871.00;;;16.70
37536;BMP180;23379;51.554;6.736;2023-03-13T15:10:19;98881.00;;;16.80
37536;BMP180;23379;51.554;6.736;2023-03-13T15:12:44;98874.00;;;16.70
37536;BMP180;23379;51.554;6.736;2023-03-13T15:15:10;98891.00;;;16.70
37536;BMP180;23379;51.554;6.736;2023-03-13T15:17:36;98891.00;;;17.00
37536;BMP180;23379;51.554;6.736;2023-03-13T15:20:02;98870.00;;;16.70
37536;BMP180;23379;51.554;6.736;2023-03-13T15:22:32;98851.00;;;16.90
37536;BMP180;23379;51.554;6.736;2023-03-13T15:24:59;98827.00;;;16.80
37536;BMP180;23379;51.554;6.736;2023-03-13T15:27:25;98867.00;;;16.80
37536;BMP180;23379;51.554;6.736;2023-03-13T15:29:52;98856.00;;;16.80
37536;BMP180;23379;51.554;6.736;2023-03-13T15:32:29;98845.00;;;16.70
37536;BMP180;23379;51.554;6.736;2023-03-13T15:34:55;98837.00;;;16.80
37536;BMP180;23379;51.554;6.736;2023-03-13T15:37:28;98836.00;;;16.90
37536;BMP180;23379;51.554;6.736;2023-03-13T15:39:55;98845.00;;;16.80
37536;BMP180;23379;51.554;6.736;2023-03-13T15:42:22;98845.00;;;16.80
37536;BMP180;23379;51.554;6.736;2023-03-13T15:44:47;98831.00;;;16.80
37536;BMP180;23379;51.554;6.736;2023-03-13T15:47:18;98815.00;;;16.60
37536;BMP180;23379;51.554;6.736;2023-03-13T15:49:44;98785.00;;;16.40
37536;BMP180;23379;51.554;6.736;2023-03-13T15:52:13;98811.00;;;16.60
37536;BMP180;23379;51.554;6.736;2023-03-13T15:54:41;98807.00;;;16.60
37536;BMP180;23379;51.554;6.736;2023-03-13T15:57:09;98788.00;;;16.50
37536;BMP180;23379;51.554;6.736;2023-03-13T15:59:36;98781.00;;;16.50
37536;BMP180;23379;51.554;6.736;2023-03-13T16:02:01;98766.00;;;16.50
37536;BMP180;23379;51.554;6.736;2023-03-13T16:04:26;98777.00;;;16.30
37536;BMP180;23379;51.554;6.736;2023-03-13T16:06:51;98776.00;;;16.40